createdAt,value
2022-10-29T00:00:35.201Z,97262.69
2022-10-29T00:03:32.134Z,97261.69
2022-10-29T00:06:28.974Z,97254.84
2022-10-29T00:09:25.829Z,97256.91
2022-10-29T00:12:22.652Z,97263.06
2022-10-29T00:15:19.545Z,97250.00
2022-10-29T00:18:16.384Z,97247.91
2022-10-29T00:21:19.794Z,97258.44
2022-10-29T00:24:17.033Z,97263.41
2022-10-29T00:27:13.866Z,97260.56
2022-10-29T00:30:12.025Z,97264.97
2022-10-29T00:33:08.898Z,97254.09
2022-10-29T00:36:12.755Z,97258.44
2022-10-29T00:39:15.704Z,97258.63
2022-10-29T00:42:15.928Z,97261.44
2022-10-29T00:45:21.110Z,97269.13
2022-10-29T00:48:18.095Z,97268.84
2022-10-29T00:51:16.610Z,97266.50
2022-10-29T00:54:16.036Z,97267.38
2022-10-29T00:57:38.971Z,97267.84
2022-10-29T01:00:35.791Z,97255.06
2022-10-29T01:03:32.664Z,97255.94
2022-10-29T01:06:30.954Z,97247.06
2022-10-29T01:09:27.792Z,97253.78
2022-10-29T01:12:59.276Z,97246.84
2022-10-29T01:15:56.034Z,97254.66
2022-10-29T01:19:09.044Z,97239.00
2022-10-29T01:22:43.703Z,97229.19
2022-10-29T01:26:19.480Z,97231.16
2022-10-29T01:29:36.529Z,97234.13
2022-10-29T01:32:40.934Z,97244.56
2022-10-29T01:36:33.599Z,97244.53
2022-10-29T01:39:40.728Z,97248.88
2022-10-29T01:42:49.678Z,97243.25
2022-10-29T01:45:56.431Z,97246.50
2022-10-29T01:49:02.468Z,97237.84
2022-10-29T01:52:02.970Z,97241.53
2022-10-29T01:54:59.873Z,97245.06
2022-10-29T01:57:57.246Z,97252.53
2022-10-29T02:01:35.233Z,97246.84
2022-10-29T02:04:54.377Z,97258.94
2022-10-29T02:08:03.090Z,97262.75
2022-10-29T02:11:30.768Z,97252.94
2022-10-29T02:14:38.323Z,97257.78
2022-10-29T02:17:35.873Z,97260.78
2022-10-29T02:20:32.848Z,97260.38
2022-10-29T02:23:29.692Z,97260.38
2022-10-29T02:26:26.511Z,97264.03
2022-10-29T02:29:23.432Z,97254.19
2022-10-29T02:32:20.242Z,97258.03
2022-10-29T02:35:17.196Z,97260.56
2022-10-29T02:38:14.005Z,97263.25
2022-10-29T02:41:10.799Z,97256.03
2022-10-29T02:44:07.650Z,97253.06
2022-10-29T02:47:04.512Z,97248.22
2022-10-29T02:50:01.440Z,97246.63
2022-10-29T02:52:58.292Z,97248.00
2022-10-29T02:55:55.111Z,97243.75
2022-10-29T02:58:52.456Z,97240.44
2022-10-29T03:01:49.445Z,97235.16
2022-10-29T03:04:46.430Z,97235.78
2022-10-29T03:07:43.258Z,97236.53
2022-10-29T03:10:40.131Z,97248.22
2022-10-29T03:16:34.989Z,97240.72
2022-10-29T03:19:31.863Z,97224.50
2022-10-29T03:22:28.714Z,97231.38
2022-10-29T03:25:25.548Z,97236.09
2022-10-29T03:28:24.288Z,97236.59
2022-10-29T03:31:21.106Z,97240.78
2022-10-29T03:34:18.018Z,97238.09
2022-10-29T03:37:14.844Z,97237.31
2022-10-29T03:40:11.769Z,97236.28
2022-10-29T03:43:08.632Z,97232.59
2022-10-29T03:46:06.315Z,97233.13
2022-10-29T03:49:03.172Z,97240.06
2022-10-29T03:52:00.016Z,97236.09
2022-10-29T03:54:56.915Z,97230.19
2022-10-29T03:57:54.086Z,97245.13
2022-10-29T04:01:03.065Z,97233.38
2022-10-29T04:03:59.891Z,97233.69
2022-10-29T04:06:56.708Z,97228.38
2022-10-29T04:09:53.534Z,97231.78
2022-10-29T04:12:50.356Z,97237.63
2022-10-29T04:15:47.189Z,97228.22
2022-10-29T04:18:46.297Z,97248.06
2022-10-29T04:31:33.533Z,97285.47
2022-10-29T04:34:30.389Z,97279.84
2022-10-29T04:37:29.737Z,97288.47
2022-10-29T04:40:26.556Z,97286.03
2022-10-29T04:43:23.379Z,97282.28
2022-10-29T04:46:20.220Z,97278.53
2022-10-29T04:49:17.147Z,97270.84
2022-10-29T04:52:14.033Z,97266.59
2022-10-29T04:55:10.883Z,97278.56
2022-10-29T04:58:15.091Z,97266.25
2022-10-29T05:01:12.017Z,97257.69
2022-10-29T05:04:09.157Z,97265.75
2022-10-29T05:07:05.996Z,97265.00
2022-10-29T05:10:02.900Z,97261.00
2022-10-29T05:13:09.785Z,97256.69
2022-10-29T05:16:07.247Z,97247.56
2022-10-29T05:19:05.005Z,97249.25
2022-10-29T05:22:01.904Z,97254.03
2022-10-29T05:24:58.723Z,97248.13
2022-10-29T05:28:07.753Z,97239.06
2022-10-29T05:31:04.995Z,97243.31
2022-10-29T05:34:01.820Z,97249.91
2022-10-29T05:36:58.736Z,97249.66
2022-10-29T05:39:55.615Z,97258.53
2022-10-29T05:42:52.615Z,97264.13
2022-10-29T05:45:49.424Z,97270.03
2022-10-29T05:48:46.301Z,97270.31
2022-10-29T05:51:43.128Z,97258.22
2022-10-29T05:54:39.945Z,97264.16
2022-10-29T05:57:36.787Z,97265.47
2022-10-29T06:00:37.448Z,97262.78
2022-10-29T06:03:34.414Z,97271.88
2022-10-29T06:06:31.396Z,97274.28
2022-10-29T06:09:28.297Z,97272.97
2022-10-29T06:12:25.147Z,97273.75
2022-10-29T06:15:23.139Z,97275.88
2022-10-29T06:18:19.965Z,97267.28
2022-10-29T06:21:16.860Z,97265.91
2022-10-29T06:24:13.760Z,97260.78
2022-10-29T06:27:11.032Z,97262.88
2022-10-29T06:30:08.840Z,97250.53
2022-10-29T06:33:06.021Z,97251.63
2022-10-29T06:36:03.033Z,97245.13
2022-10-29T06:38:59.969Z,97245.84
2022-10-29T06:41:56.917Z,97239.03
2022-10-29T06:44:53.802Z,97244.06
2022-10-29T06:47:50.650Z,97251.03
2022-10-29T06:50:47.532Z,97247.63
2022-10-29T06:53:44.424Z,97247.84
2022-10-29T06:56:41.443Z,97244.19
2022-10-29T06:59:38.453Z,97242.28
2022-10-29T07:02:35.368Z,97241.38
2022-10-29T07:05:33.169Z,97232.28
2022-10-29T07:08:30.606Z,97241.97
2022-10-29T07:11:27.463Z,97241.09
2022-10-29T07:14:24.279Z,97240.63
2022-10-29T07:17:21.109Z,97240.31
2022-10-29T07:20:17.974Z,97240.00
2022-10-29T07:23:14.895Z,97240.78
2022-10-29T07:26:11.737Z,97247.25
2022-10-29T07:29:08.585Z,97237.91
2022-10-29T07:32:05.562Z,97238.06
2022-10-29T07:35:02.565Z,97238.38
2022-10-29T07:38:09.086Z,97231.47
2022-10-29T07:41:07.293Z,97237.28
2022-10-29T07:44:04.231Z,97249.94
2022-10-29T07:47:03.064Z,97255.03
2022-10-29T07:50:00.426Z,97246.13
2022-10-29T07:53:00.864Z,97253.31
2022-10-29T07:55:58.124Z,97252.22
2022-10-29T07:58:54.998Z,97252.72
2022-10-29T08:01:52.003Z,97250.81
2022-10-29T08:04:49.003Z,97237.84
2022-10-29T08:07:45.839Z,97247.25
2022-10-29T08:10:42.691Z,97248.50
2022-10-29T08:13:39.514Z,97236.59
2022-10-29T08:16:36.354Z,97244.59
2022-10-29T08:19:33.325Z,97231.75
2022-10-29T08:22:31.019Z,97232.78
2022-10-29T08:25:28.096Z,97237.53
2022-10-29T08:28:25.824Z,97245.09
2022-10-29T08:31:22.909Z,97243.78
2022-10-29T08:34:19.771Z,97239.97
2022-10-29T08:37:16.620Z,97243.22
2022-10-29T08:40:34.669Z,97254.78
2022-10-29T08:44:16.743Z,97240.69
2022-10-29T08:47:23.421Z,97250.31
2022-10-29T08:50:41.329Z,97245.59
2022-10-29T08:54:10.466Z,97252.28
2022-10-29T08:57:15.890Z,97246.19
2022-10-29T09:00:26.040Z,97237.31
2022-10-29T09:03:24.335Z,97239.38
2022-10-29T09:06:53.786Z,97242.09
2022-10-29T09:10:01.678Z,97236.13
2022-10-29T09:13:49.870Z,97238.00
2022-10-29T09:17:01.008Z,97233.00
2022-10-29T09:20:29.213Z,97224.22
2022-10-29T09:24:05.124Z,97230.28
2022-10-29T09:27:29.426Z,97224.13
2022-10-29T09:30:31.682Z,97237.94
2022-10-29T09:33:29.321Z,97228.72
2022-10-29T09:36:26.583Z,97231.09
2022-10-29T09:39:40.542Z,97226.63
2022-10-29T09:42:42.351Z,97220.44
2022-10-29T09:45:52.624Z,97221.91
2022-10-29T09:49:36.076Z,97228.25
2022-10-29T09:52:36.941Z,97214.91
2022-10-29T09:55:43.802Z,97209.78
2022-10-29T09:58:45.896Z,97208.84
2022-10-29T10:01:42.802Z,97207.91
2022-10-29T10:04:46.734Z,97208.63
2022-10-29T10:08:07.522Z,97204.63
2022-10-29T10:11:07.941Z,97209.91
2022-10-29T10:14:20.695Z,97221.31
2022-10-29T10:17:17.582Z,97213.22
2022-10-29T10:20:37.213Z,97209.75
2022-10-29T10:23:41.806Z,97199.22
2022-10-29T10:26:43.312Z,97209.09
2022-10-29T10:29:40.296Z,97204.16
2022-10-29T10:32:37.238Z,97201.72
2022-10-29T10:35:36.128Z,97190.13
2022-10-29T10:38:44.436Z,97162.34
2022-10-29T10:41:43.090Z,97161.06
2022-10-29T10:44:52.289Z,97163.31
2022-10-29T10:47:57.585Z,97152.22
2022-10-29T10:51:25.320Z,97151.09
2022-10-29T10:54:39.133Z,97153.34
2022-10-29T10:57:50.051Z,97155.00
2022-10-29T11:01:16.435Z,97153.50
2022-10-29T11:04:30.442Z,97152.53
2022-10-29T11:07:33.329Z,97154.84
2022-10-29T11:11:00.240Z,97167.03
2022-10-29T11:14:05.444Z,97169.50
2022-10-29T11:17:07.155Z,97162.97
2022-10-29T11:20:16.077Z,97161.03
2022-10-29T11:23:34.188Z,97166.09
2022-10-29T11:26:53.430Z,97157.91
2022-10-29T11:30:09.591Z,97160.25
2022-10-29T11:33:40.733Z,97148.97
2022-10-29T11:36:50.760Z,97144.88
2022-10-29T11:40:23.542Z,97138.84
2022-10-29T11:43:21.439Z,97136.66
2022-10-29T11:46:30.918Z,97136.59
2022-10-29T11:50:14.955Z,97133.56
2022-10-29T11:53:32.591Z,97131.56
2022-10-29T11:56:58.960Z,97140.47
2022-10-29T12:00:16.716Z,97138.84
2022-10-29T12:04:12.601Z,97128.38
2022-10-29T12:07:53.350Z,97136.97
2022-10-29T12:10:59.848Z,97127.44
2022-10-29T12:14:29.969Z,97123.47
2022-10-29T12:17:43.946Z,97124.78
2022-10-29T12:21:07.319Z,97128.31
2022-10-29T12:25:02.090Z,97120.16
2022-10-29T12:28:19.152Z,97111.47
2022-10-29T12:31:45.157Z,97109.31
2022-10-29T12:34:50.287Z,97125.31
2022-10-29T12:38:05.872Z,97113.50
2022-10-29T12:41:20.938Z,97099.25
2022-10-29T12:45:23.851Z,97098.91
2022-10-29T12:48:49.345Z,97108.88
2022-10-29T12:52:04.558Z,97106.00
2022-10-29T12:55:04.567Z,97096.66
2022-10-29T12:58:50.656Z,97097.75
2022-10-29T13:05:10.080Z,97085.19
2022-10-29T13:08:06.815Z,97093.25
2022-10-29T13:11:23.449Z,97103.13
2022-10-29T13:14:38.372Z,97092.88
2022-10-29T13:17:39.738Z,97082.03
2022-10-29T13:20:46.284Z,97080.38
2022-10-29T13:24:03.626Z,97073.72
2022-10-29T13:27:33.375Z,97069.41
2022-10-29T13:30:30.308Z,97069.06
2022-10-29T13:33:27.071Z,97060.06
2022-10-29T13:36:23.779Z,97067.63
2022-10-29T13:39:20.886Z,97069.88
2022-10-29T13:42:18.196Z,97069.22
2022-10-29T13:45:15.295Z,97064.44
2022-10-29T13:48:24.852Z,97071.78
2022-10-29T13:51:34.369Z,97074.50
2022-10-29T13:54:52.931Z,97065.44
2022-10-29T13:58:33.817Z,97080.47
2022-10-29T14:01:33.685Z,97081.00
2022-10-29T14:04:37.587Z,97065.03
2022-10-29T14:07:56.138Z,97059.88
2022-10-29T14:11:02.476Z,97061.34
2022-10-29T14:14:02.819Z,97061.28
2022-10-29T14:17:18.253Z,97062.31
2022-10-29T14:20:28.845Z,97059.88
2022-10-29T14:23:26.866Z,97060.50
2022-10-29T14:26:24.965Z,97057.06
2022-10-29T14:29:24.539Z,97051.66
2022-10-29T14:32:22.645Z,97056.28
2022-10-29T14:35:21.496Z,97057.47
2022-10-29T14:38:20.962Z,97059.13
2022-10-29T14:41:19.322Z,97058.50
2022-10-29T14:44:30.055Z,97062.59
2022-10-29T14:47:50.255Z,97059.16
2022-10-29T14:50:50.806Z,97069.88
2022-10-29T14:53:56.365Z,97053.88
2022-10-29T14:56:59.487Z,97061.31
2022-10-29T15:00:04.021Z,97058.44
2022-10-29T15:03:01.768Z,97058.47
2022-10-29T15:06:24.801Z,97063.09
2022-10-29T15:09:28.053Z,97066.63
2022-10-29T15:12:34.926Z,97067.16
2022-10-29T15:15:32.179Z,97065.53
2022-10-29T15:18:30.641Z,97067.44
2022-10-29T15:21:33.070Z,97075.41
2022-10-29T15:24:30.072Z,97070.97
2022-10-29T15:27:27.157Z,97074.75
2022-10-29T15:30:35.261Z,97083.97
2022-10-29T15:33:32.479Z,97077.19
2022-10-29T15:36:50.038Z,97072.53
2022-10-29T15:40:04.776Z,97080.78
2022-10-29T15:43:30.607Z,97071.28
2022-10-29T15:46:35.090Z,97079.97
2022-10-29T15:49:32.793Z,97087.06
2022-10-29T15:52:39.150Z,97081.31
2022-10-29T15:55:38.529Z,97081.78
2022-10-29T15:58:35.409Z,97081.09
2022-10-29T16:01:32.359Z,97083.81
2022-10-29T16:04:29.285Z,97086.59
2022-10-29T16:07:26.151Z,97090.00
2022-10-29T16:10:23.203Z,97092.59
2022-10-29T16:13:20.681Z,97098.88
2022-10-29T16:16:20.933Z,97093.41
2022-10-29T16:19:17.776Z,97093.34
2022-10-29T16:22:34.991Z,97095.06
2022-10-29T16:25:32.103Z,97090.25
2022-10-29T16:28:28.977Z,97092.25
2022-10-29T16:31:28.508Z,97097.75
2022-10-29T16:34:25.352Z,97099.94
2022-10-29T16:37:22.220Z,97105.88
2022-10-29T16:40:22.778Z,97100.13
2022-10-29T16:43:19.960Z,97103.47
2022-10-29T16:46:16.855Z,97110.25
2022-10-29T16:49:13.689Z,97107.25
2022-10-29T16:52:10.610Z,97105.38
2022-10-29T16:55:07.661Z,97108.59
2022-10-29T16:58:08.868Z,97109.06
2022-10-29T17:01:08.544Z,97102.53
2022-10-29T17:04:05.751Z,97100.09
2022-10-29T17:07:02.790Z,97101.59
2022-10-29T17:09:59.761Z,97101.69
2022-10-29T17:12:57.296Z,97116.13
2022-10-29T17:15:54.476Z,97107.59
2022-10-29T17:18:51.991Z,97103.94
2022-10-29T17:21:48.889Z,97108.47
2022-10-29T17:24:46.044Z,97109.06
2022-10-29T17:27:42.955Z,97115.78
2022-10-29T17:30:40.285Z,97113.41
2022-10-29T17:33:37.727Z,97111.31
2022-10-29T17:36:36.910Z,97113.78
2022-10-29T17:39:33.861Z,97113.00
2022-10-29T17:42:31.217Z,97108.50
2022-10-29T17:45:28.204Z,97106.00
2022-10-29T17:48:25.379Z,97112.53
2022-10-29T17:51:22.915Z,97121.47
2022-10-29T17:54:21.369Z,97119.06
2022-10-29T17:57:18.222Z,97118.59
2022-10-29T18:00:16.224Z,97121.94
2022-10-29T18:03:13.141Z,97113.22
2022-10-29T18:06:13.482Z,97115.69
2022-10-29T18:09:10.413Z,97120.38
2022-10-29T18:12:07.594Z,97111.72
2022-10-29T18:15:05.395Z,97113.69
2022-10-29T18:18:02.357Z,97119.75
2022-10-29T18:20:59.189Z,97120.25
2022-10-29T18:23:56.099Z,97122.94
2022-10-29T18:26:52.944Z,97125.31
2022-10-29T18:29:50.302Z,97120.38
2022-10-29T18:32:47.134Z,97116.69
2022-10-29T18:35:43.961Z,97116.78
2022-10-29T18:38:41.058Z,97115.28
2022-10-29T18:41:37.901Z,97120.84
2022-10-29T18:44:34.822Z,97123.44
2022-10-29T18:47:31.655Z,97125.03
2022-10-29T18:50:28.511Z,97117.78
2022-10-29T18:53:25.347Z,97116.06
2022-10-29T18:56:23.556Z,97123.63
2022-10-29T18:59:21.484Z,97122.94
2022-10-29T19:02:18.501Z,97113.59
2022-10-29T19:05:15.516Z,97116.25
2022-10-29T19:08:13.196Z,97114.38
2022-10-29T19:11:16.643Z,97116.56
2022-10-29T19:14:14.420Z,97127.22
2022-10-29T19:17:11.336Z,97115.78
2022-10-29T19:20:08.726Z,97121.94
2022-10-29T19:23:05.641Z,97121.25
2022-10-29T19:26:19.229Z,97121.59
2022-10-29T19:29:16.359Z,97117.31
2022-10-29T19:32:13.271Z,97122.38
2022-10-29T19:35:11.151Z,97112.63
2022-10-29T19:38:07.998Z,97113.66
2022-10-29T19:41:04.957Z,97119.94
2022-10-29T19:44:03.015Z,97120.91
2022-10-29T19:47:00.097Z,97122.00
2022-10-29T19:49:57.006Z,97112.94
2022-10-29T19:52:53.887Z,97111.75
2022-10-29T19:55:52.257Z,97109.66
2022-10-29T19:58:49.768Z,97110.50
2022-10-29T20:01:48.534Z,97108.91
2022-10-29T20:04:45.633Z,97107.25
2022-10-29T20:07:42.528Z,97110.25
2022-10-29T20:10:39.786Z,97111.28
2022-10-29T20:13:37.833Z,97112.19
2022-10-29T20:16:34.747Z,97100.81
2022-10-29T20:19:31.613Z,97102.69
2022-10-29T20:22:28.529Z,97103.53
2022-10-29T20:25:26.044Z,97104.22
2022-10-29T20:28:23.174Z,97102.50
2022-10-29T20:31:21.547Z,97097.16
2022-10-29T20:34:18.498Z,97097.41
2022-10-29T20:37:15.593Z,97089.06
2022-10-29T20:40:13.204Z,97090.88
2022-10-29T20:43:10.081Z,97082.88
2022-10-29T20:46:07.202Z,97092.00
2022-10-29T20:49:04.046Z,97100.34
2022-10-29T20:52:00.882Z,97094.47
2022-10-29T20:54:57.695Z,97096.03
2022-10-29T20:57:54.795Z,97095.97
2022-10-29T21:00:51.903Z,97096.34
2022-10-29T21:03:50.503Z,97093.06
2022-10-29T21:06:47.364Z,97096.97
2022-10-29T21:09:44.708Z,97092.28
2022-10-29T21:12:41.636Z,97100.38
2022-10-29T21:15:38.460Z,97099.19
2022-10-29T21:18:40.003Z,97089.25
2022-10-29T21:21:36.927Z,97091.03
2022-10-29T21:24:33.813Z,97086.72
2022-10-29T21:27:30.665Z,97088.06
2022-10-29T21:30:27.520Z,97099.00
2022-10-29T21:33:24.404Z,97098.84
2022-10-29T21:36:22.005Z,97102.97
2022-10-29T21:39:18.863Z,97098.69
2022-10-29T21:42:15.706Z,97089.56
2022-10-29T21:45:12.641Z,97093.41
2022-10-29T21:48:10.896Z,97093.19
2022-10-29T21:51:13.169Z,97089.13
2022-10-29T21:54:09.998Z,97082.13
2022-10-29T21:57:06.881Z,97085.94
2022-10-29T22:00:09.752Z,97090.91
2022-10-29T22:03:06.606Z,97090.41
2022-10-29T22:06:12.543Z,97088.53
2022-10-29T22:09:11.800Z,97081.44
2022-10-29T22:12:08.673Z,97081.22
2022-10-29T22:15:06.781Z,97076.38
2022-10-29T22:18:03.690Z,97080.34
2022-10-29T22:21:07.455Z,97089.09
2022-10-29T22:24:04.819Z,97088.75
2022-10-29T22:27:01.782Z,97082.81
2022-10-29T22:29:58.642Z,97078.75
2022-10-29T22:32:55.476Z,97077.28
2022-10-29T22:35:52.340Z,97072.66
2022-10-29T22:38:59.911Z,97076.63
2022-10-29T22:41:56.733Z,97079.19
2022-10-29T22:44:53.578Z,97076.63
2022-10-29T22:47:50.389Z,97071.22
2022-10-29T22:50:47.207Z,97075.84
2022-10-29T22:53:45.656Z,97068.44
2022-10-29T22:56:42.495Z,97067.31
2022-10-29T22:59:39.386Z,97068.19
2022-10-29T23:02:36.355Z,97060.75
2022-10-29T23:05:33.248Z,97070.31
2022-10-29T23:08:30.218Z,97073.56
2022-10-29T23:11:30.699Z,97072.06
2022-10-29T23:14:27.742Z,97060.81
2022-10-29T23:17:24.566Z,97061.03
2022-10-29T23:20:21.450Z,97054.09
2022-10-29T23:23:18.276Z,97056.66
2022-10-29T23:26:15.404Z,97057.09
2022-10-29T23:29:12.241Z,97055.19
2022-10-29T23:32:09.092Z,97051.72
2022-10-29T23:35:06.305Z,97049.84
2022-10-29T23:38:03.144Z,97049.69
2022-10-29T23:41:00.760Z,97046.31
2022-10-29T23:43:58.444Z,97052.63
2022-10-29T23:46:55.266Z,97054.72
2022-10-29T23:49:52.097Z,97053.03
2022-10-29T23:52:48.928Z,97053.03
2022-10-29T23:55:46.517Z,97055.22
2022-10-29T23:58:43.359Z,97044.59
